Airfield :
LOGIN :

Register | Disclaimer

   EN    FR    IT 

 










Legend :    VFR   Marginal VFR   IFR   Intensive IFR   Very Intensive IFR
Visi :
Ceiling :
>= 8 km
>= 3000ft
5 to 8 km
1000 to 3000 ft
1500m to 5 km
500 to 1000 ft
800 to 1500m
200 to 500 ft
< 800m
< 200 ft
Symbols :   Thunderstorms  Fog  Heavy snow  Heavy precipitations  Wind > 20 kt
SIGMETs :     Misc.  Thunderstorms  Icing  Turbulence  Mountain Waves  Volcanic Ashes






- Airport Elevation : 83 ft
- IATA code : LHR


EGLL - London Heathrow

CURRENT METAR :
  • 300420Z AUTO 32002KT 7000 OVC006 07/06 Q1023

EXPIRED METARs :
  • 300350Z AUTO 28002KT 7000 OVC006 07/06 Q1023 TEMPO 4000 BR BKN004
  • 300320Z AUTO 27002KT 7000 OVC006 07/06 Q1023 TEMPO 4000 BR BKN004
  • 300250Z AUTO 30002KT 7000 OVC006 07/06 Q1023 TEMPO 4000 BR BKN004
  • 300220Z AUTO 04002KT 7000 BKN006 OVC010 07/06 Q1023 TEMPO 4000 BR BKN004
  • 300150Z AUTO 04003KT 7000 OVC006 07/06 Q1023 TEMPO 4000 BR BKN004

TAF TAF EGLL
Valid from the 30 at 00:00 until the 01 at 06:00 UTC


292256Z 3000/0106 05003KT 8000 BKN016
BECMG 3000/3003 BKN007
TEMPO 3000/3012 4000 BR OVC004
PROB30 3004/3009 0300 FG OVC001
TEMPO 3013/3021 FEW009
BECMG 3021/3024 4000 BR MIFG FEW004
TEMPO 0100/0106 BKN003
PROB30
TEMPO 0100/0106 0300 FG VV///



MET'MAP, your aeronautical weather chart ! - Copyright ORBIFLY December 2007 - Disclaimer

ORBIFLY MET'MAP TEAM :

Programming & Development : Alexandra Zaïnal
Original concept : Baudouin d'Aumeries
Technical & hardware support : Manuel Goepfert
Assistance : Marc-Olivier Méhu




SOURCES & CREDITS :

   NOAA